createdAt,value
2023-11-11T00:01:23.107Z,99727.94
2023-11-11T00:03:50.022Z,99737.34
2023-11-11T00:06:17.179Z,99734.81
2023-11-11T00:08:43.824Z,99738.16
2023-11-11T00:11:10.330Z,99737.84
2023-11-11T00:13:36.898Z,99738.84
2023-11-11T00:16:03.629Z,99749.75
2023-11-11T00:18:30.227Z,99741.53
2023-11-11T00:20:59.020Z,99751.44
2023-11-11T00:23:25.525Z,99744.41
2023-11-11T00:25:51.990Z,99749.06
2023-11-11T00:28:18.487Z,99746.16
2023-11-11T00:30:46.120Z,99750.53
2023-11-11T00:33:13.235Z,99746.16
2023-11-11T00:35:39.822Z,99752.31
2023-11-11T00:38:07.949Z,99749.63
2023-11-11T00:40:34.430Z,99754.31
2023-11-11T00:43:00.874Z,99750.63
2023-11-11T00:45:27.398Z,99758.41
2023-11-11T00:47:53.988Z,99761.56
2023-11-11T00:50:20.468Z,99757.69
2023-11-11T00:52:46.924Z,99760.88
2023-11-11T00:55:14.129Z,99757.03
2023-11-11T00:57:42.170Z,99763.41
2023-11-11T01:00:12.069Z,99770.28
2023-11-11T01:02:38.995Z,99765.59
2023-11-11T01:05:05.942Z,99767.44
2023-11-11T01:07:32.448Z,99773.13
2023-11-11T01:09:59.898Z,99772.94
2023-11-11T01:12:26.525Z,99783.84
2023-11-11T01:14:53.097Z,99779.91
2023-11-11T01:17:20.074Z,99786.66
2023-11-11T01:19:47.858Z,99792.22
2023-11-11T01:22:15.022Z,99802.13
2023-11-11T01:24:42.309Z,99799.91
2023-11-11T01:27:08.974Z,99801.41
2023-11-11T01:29:35.446Z,99802.56
2023-11-11T01:32:01.986Z,99801.63
2023-11-11T01:34:29.227Z,99801.94
2023-11-11T01:36:57.574Z,99803.44
2023-11-11T01:39:24.168Z,99803.25
2023-11-11T01:41:50.622Z,99803.88
2023-11-11T01:44:17.720Z,99799.97
2023-11-11T01:46:46.511Z,99801.69
2023-11-11T01:49:13.275Z,99817.84
2023-11-11T01:51:40.942Z,99817.41
2023-11-11T01:54:07.689Z,99815.28
2023-11-11T01:56:34.656Z,99813.59
2023-11-11T01:59:01.252Z,99819.16
2023-11-11T02:01:27.739Z,99825.19
2023-11-11T02:03:54.605Z,99822.19
2023-11-11T02:06:21.243Z,99819.59
2023-11-11T02:08:48.373Z,99818.72
2023-11-11T02:11:15.060Z,99833.13
2023-11-11T02:13:41.834Z,99833.91
2023-11-11T02:16:10.277Z,99831.81
2023-11-11T02:18:37.056Z,99834.75
2023-11-11T02:21:04.315Z,99833.31
2023-11-11T02:23:35.684Z,99816.25
2023-11-11T02:26:03.587Z,99812.22
2023-11-11T02:28:30.871Z,99822.56
2023-11-11T02:30:58.101Z,99816.84
2023-11-11T02:33:25.917Z,99816.16
2023-11-11T02:35:52.820Z,99820.31
2023-11-11T02:38:19.296Z,99818.97
2023-11-11T02:40:45.795Z,99820.53
2023-11-11T02:43:12.871Z,99816.47
2023-11-11T02:45:39.581Z,99823.56
2023-11-11T02:48:07.870Z,99832.34
2023-11-11T02:50:34.681Z,99821.66
2023-11-11T02:53:01.152Z,99829.69
2023-11-11T02:55:28.570Z,99828.31
2023-11-11T02:57:55.367Z,99841.19
2023-11-11T03:00:22.681Z,99845.44
2023-11-11T03:02:49.552Z,99849.00
2023-11-11T03:05:16.456Z,99851.50
2023-11-11T03:07:43.536Z,99861.22
2023-11-11T03:10:11.577Z,99864.25
2023-11-11T03:12:38.479Z,99873.44
2023-11-11T03:15:05.498Z,99874.13
2023-11-11T03:17:32.586Z,99876.78
2023-11-11T03:20:00.440Z,99878.94
2023-11-11T03:22:27.292Z,99891.88
2023-11-11T03:24:53.821Z,99896.91
2023-11-11T03:27:20.396Z,99902.69
2023-11-11T03:29:46.910Z,99902.59
2023-11-11T03:32:13.445Z,99903.97
2023-11-11T03:34:39.852Z,99902.31
2023-11-11T03:37:06.328Z,99900.47
2023-11-11T03:39:33.024Z,99918.41
2023-11-11T03:41:59.573Z,99913.53
2023-11-11T03:44:26.335Z,99919.75
2023-11-11T03:46:52.806Z,99918.22
2023-11-11T03:49:19.405Z,99916.16
2023-11-11T03:51:45.973Z,99925.84
2023-11-11T03:54:12.523Z,99944.56
2023-11-11T03:56:39.102Z,99941.16
2023-11-11T03:59:07.083Z,99923.19
2023-11-11T04:01:37.815Z,99933.25
2023-11-11T04:04:04.802Z,99927.56
2023-11-11T04:06:31.423Z,99923.72
2023-11-11T04:08:57.913Z,99930.78
2023-11-11T04:11:24.942Z,99926.41
2023-11-11T04:13:51.664Z,99933.97
2023-11-11T04:16:18.287Z,99940.63
2023-11-11T04:18:44.804Z,99947.25
2023-11-11T04:21:12.926Z,99959.66
2023-11-11T04:23:41.584Z,99974.59
2023-11-11T04:26:08.279Z,99985.50
2023-11-11T04:28:35.405Z,99990.22
2023-11-11T04:31:02.037Z,99980.78
2023-11-11T04:33:29.737Z,99989.44
2023-11-11T04:35:56.649Z,99990.97
2023-11-11T04:38:26.726Z,99981.03
2023-11-11T04:40:55.233Z,99982.81
2023-11-11T04:43:21.756Z,99996.63
2023-11-11T04:45:49.354Z,99997.75
2023-11-11T04:48:16.000Z,99997.44
2023-11-11T04:50:42.580Z,99987.06
2023-11-11T04:53:09.143Z,99985.84
2023-11-11T04:55:37.418Z,99995.28
2023-11-11T04:58:04.997Z,100004.50
2023-11-11T05:00:32.177Z,100006.91
2023-11-11T05:02:58.785Z,99985.00
2023-11-11T05:05:25.506Z,99990.00
2023-11-11T05:07:51.977Z,99998.59
2023-11-11T05:10:18.530Z,99993.75
2023-11-11T05:12:48.464Z,99988.00
2023-11-11T05:15:15.880Z,99997.81
2023-11-11T05:17:44.405Z,99993.97
2023-11-11T05:20:15.413Z,99997.97
2023-11-11T05:22:42.819Z,100003.34
2023-11-11T05:25:11.605Z,100018.91
2023-11-11T05:27:38.507Z,100027.94
2023-11-11T05:30:06.372Z,100040.91
2023-11-11T05:32:33.042Z,100043.59
2023-11-11T05:34:59.757Z,100037.16
2023-11-11T05:37:26.550Z,100040.97
2023-11-11T05:39:53.303Z,100047.09
2023-11-11T05:42:20.240Z,100040.06
2023-11-11T05:44:46.897Z,100045.28
2023-11-11T05:47:14.170Z,100047.19
2023-11-11T05:49:46.291Z,100054.78
2023-11-11T05:52:12.917Z,100054.56
2023-11-11T05:54:39.381Z,100051.22
2023-11-11T05:57:05.891Z,100047.81
2023-11-11T05:59:32.370Z,100054.56
2023-11-11T06:01:58.824Z,100050.88
2023-11-11T06:04:26.665Z,100050.50
2023-11-11T06:06:56.394Z,100050.13
2023-11-11T06:09:25.456Z,100050.28
2023-11-11T06:11:52.164Z,100053.66
2023-11-11T06:14:22.491Z,100059.63
2023-11-11T06:16:49.075Z,100055.97
2023-11-11T06:19:17.346Z,100053.81
2023-11-11T06:21:44.026Z,100046.44
2023-11-11T06:24:11.889Z,100051.66
2023-11-11T06:26:38.504Z,100057.00
2023-11-11T06:29:07.712Z,100047.69
2023-11-11T06:31:34.615Z,100061.56
2023-11-11T06:34:02.038Z,100052.28
2023-11-11T06:36:29.206Z,100056.19
2023-11-11T06:38:56.055Z,100057.66
2023-11-11T06:41:23.845Z,100055.97
2023-11-11T06:43:50.398Z,100056.50
2023-11-11T06:46:16.973Z,100057.19
2023-11-11T06:48:43.573Z,100051.28
2023-11-11T06:51:10.682Z,100060.44
2023-11-11T06:53:37.131Z,100062.94
2023-11-11T06:56:04.413Z,100064.38
2023-11-11T06:58:31.105Z,100068.97
2023-11-11T07:00:59.995Z,100075.78
2023-11-11T07:03:26.668Z,100083.72
2023-11-11T07:05:53.151Z,100084.31
2023-11-11T07:08:19.714Z,100082.56
2023-11-11T07:10:46.252Z,100074.19
2023-11-11T07:13:13.780Z,100085.78
2023-11-11T07:15:42.782Z,100090.22
2023-11-11T07:18:11.126Z,100092.91
2023-11-11T07:20:37.781Z,100090.84
2023-11-11T07:23:04.564Z,100094.38
2023-11-11T07:25:32.589Z,100096.75
2023-11-11T07:27:59.088Z,100083.72
2023-11-11T07:30:25.606Z,100089.09
2023-11-11T07:32:59.530Z,100082.03
2023-11-11T07:35:28.552Z,100085.09
2023-11-11T07:37:56.155Z,100079.41
2023-11-11T07:40:22.732Z,100080.34
2023-11-11T07:42:50.343Z,100079.63
2023-11-11T07:45:21.731Z,100079.56
2023-11-11T07:47:48.306Z,100087.28
2023-11-11T07:50:16.844Z,100081.94
2023-11-11T07:52:43.317Z,100072.16
2023-11-11T07:55:11.749Z,100076.44
2023-11-11T08:00:08.713Z,100108.38
2023-11-11T08:02:37.426Z,100108.38
2023-11-11T08:05:04.658Z,100117.81
2023-11-11T08:07:31.113Z,100121.09
2023-11-11T08:09:57.739Z,100127.09
2023-11-11T08:12:24.298Z,100131.19
2023-11-11T08:14:51.129Z,100129.13
2023-11-11T08:17:17.650Z,100126.53
2023-11-11T08:19:45.006Z,100135.44
2023-11-11T08:22:11.591Z,100143.88
2023-11-11T08:24:38.405Z,100150.47
2023-11-11T08:27:05.865Z,100143.00
2023-11-11T08:29:32.533Z,100148.00
2023-11-11T08:31:59.131Z,100154.13
2023-11-11T08:34:31.250Z,100148.22
2023-11-11T08:36:58.399Z,100150.75
2023-11-11T08:39:25.476Z,100151.66
2023-11-11T08:41:53.354Z,100154.78
2023-11-11T08:44:21.044Z,100150.69
2023-11-11T08:46:47.923Z,100152.50
2023-11-11T08:49:14.658Z,100149.28
2023-11-11T08:51:41.360Z,100157.88
2023-11-11T08:54:08.059Z,100158.50
2023-11-11T08:56:34.516Z,100162.38
2023-11-11T08:59:01.072Z,100158.66
2023-11-11T09:01:27.857Z,100147.72
2023-11-11T09:03:55.191Z,100150.56
2023-11-11T09:06:21.898Z,100160.69
2023-11-11T09:08:49.271Z,100166.91
2023-11-11T09:11:21.657Z,100160.03
2023-11-11T09:13:48.132Z,100161.88
2023-11-11T09:16:16.288Z,100159.50
2023-11-11T09:18:43.130Z,100170.63
2023-11-11T09:21:10.360Z,100186.25
2023-11-11T09:23:37.760Z,100186.31
2023-11-11T09:26:06.697Z,100186.38
2023-11-11T09:28:36.072Z,100189.75
2023-11-11T09:31:02.867Z,100194.41
2023-11-11T09:33:29.862Z,100184.81
2023-11-11T09:35:56.692Z,100176.38
2023-11-11T09:38:23.185Z,100175.22
2023-11-11T09:40:49.798Z,100173.75
2023-11-11T09:43:16.443Z,100178.81
2023-11-11T09:45:42.965Z,100178.63
2023-11-11T09:48:09.810Z,100177.91
2023-11-11T09:50:38.143Z,100178.13
2023-11-11T09:53:04.650Z,100184.53
2023-11-11T09:55:32.875Z,100187.63
2023-11-11T09:58:00.301Z,100180.53
2023-11-11T10:00:28.850Z,100176.56
2023-11-11T10:02:55.645Z,100188.25
2023-11-11T10:05:22.288Z,100186.94
2023-11-11T10:07:49.088Z,100180.91
2023-11-11T10:10:17.097Z,100180.88
2023-11-11T10:12:43.614Z,100170.41
2023-11-11T10:15:11.680Z,100168.06
2023-11-11T10:17:42.701Z,100174.34
2023-11-11T10:20:16.935Z,100182.56
2023-11-11T10:22:48.217Z,100192.13
2023-11-11T10:25:20.734Z,100194.78
2023-11-11T10:27:52.700Z,100193.84
2023-11-11T10:30:27.089Z,100193.66
2023-11-11T10:32:55.404Z,100207.63
2023-11-11T10:35:25.516Z,100216.50
2023-11-11T10:37:52.858Z,100214.28
2023-11-11T10:40:19.951Z,100214.47
2023-11-11T10:42:50.697Z,100191.03
2023-11-11T10:45:17.620Z,100175.06
2023-11-11T10:47:45.267Z,100154.97
2023-11-11T10:50:12.711Z,100159.09
2023-11-11T10:52:43.402Z,100152.31
2023-11-11T10:55:11.652Z,100151.53
2023-11-11T10:57:48.617Z,100144.69
2023-11-11T11:00:20.859Z,100162.75
2023-11-11T11:02:49.696Z,100163.72
2023-11-11T11:05:45.632Z,100154.59
2023-11-11T11:08:22.396Z,100175.50
2023-11-11T11:11:05.354Z,100168.97
2023-11-11T11:13:35.057Z,100170.44
2023-11-11T11:16:02.910Z,100176.50
2023-11-11T11:18:29.346Z,100170.56
2023-11-11T11:20:57.090Z,100172.94
2023-11-11T11:23:23.794Z,100193.66
2023-11-11T11:25:52.052Z,100191.28
2023-11-11T11:28:22.489Z,100190.44
2023-11-11T11:31:00.744Z,100193.03
2023-11-11T11:33:32.204Z,100191.88
2023-11-11T11:36:05.794Z,100187.06
2023-11-11T11:38:40.513Z,100170.31
2023-11-11T11:41:14.661Z,100181.59
2023-11-11T11:43:42.774Z,100185.16
2023-11-11T11:46:09.880Z,100178.38
2023-11-11T11:48:38.604Z,100177.19
2023-11-11T11:51:09.714Z,100181.25
2023-11-11T11:53:38.069Z,100176.53
2023-11-11T11:56:07.280Z,100184.25
2023-11-11T11:58:53.866Z,100194.00
2023-11-11T12:01:32.437Z,100189.63
2023-11-11T12:04:00.681Z,100190.25
2023-11-11T12:06:28.341Z,100200.84
2023-11-11T12:08:58.603Z,100193.25
2023-11-11T12:11:27.493Z,100198.16
2023-11-11T12:13:55.384Z,100197.84
2023-11-11T12:16:38.034Z,100194.50
2023-11-11T12:19:13.135Z,100195.53
2023-11-11T12:21:48.010Z,100199.72
2023-11-11T12:24:17.307Z,100197.66
2023-11-11T12:26:45.073Z,100200.59
2023-11-11T12:29:11.999Z,100195.44
2023-11-11T12:31:46.531Z,100192.56
2023-11-11T12:34:14.184Z,100198.50
2023-11-11T12:36:41.028Z,100206.91
2023-11-11T12:39:13.093Z,100207.78
2023-11-11T12:41:39.928Z,100198.00
2023-11-11T12:44:08.715Z,100204.91
2023-11-11T12:46:42.708Z,100211.56
2023-11-11T12:49:11.944Z,100209.53
2023-11-11T12:51:39.875Z,100211.78
2023-11-11T12:54:07.229Z,100209.56
2023-11-11T12:56:34.763Z,100213.47
2023-11-11T12:59:12.568Z,100215.72
2023-11-11T13:01:39.566Z,100226.31
2023-11-11T13:04:07.431Z,100216.75
2023-11-11T13:06:35.584Z,100217.59
2023-11-11T13:09:05.225Z,100220.28
2023-11-11T13:11:33.429Z,100222.78
2023-11-11T13:14:05.286Z,100218.97
2023-11-11T13:16:32.610Z,100212.69
2023-11-11T13:19:02.623Z,100219.09
2023-11-11T13:21:30.107Z,100205.94
2023-11-11T13:23:58.722Z,100213.88
2023-11-11T13:26:27.088Z,100217.53
2023-11-11T13:28:54.845Z,100218.03
2023-11-11T13:31:25.893Z,100222.28
2023-11-11T13:33:53.510Z,100223.19
2023-11-11T13:36:30.620Z,100224.00
2023-11-11T13:38:59.560Z,100232.91
2023-11-11T13:41:38.109Z,100231.91
2023-11-11T13:44:06.304Z,100236.28
2023-11-11T13:46:33.384Z,100230.22
2023-11-11T13:49:01.834Z,100243.19
2023-11-11T13:51:28.560Z,100241.50
2023-11-11T13:53:56.905Z,100240.16
2023-11-11T13:56:24.209Z,100239.16
2023-11-11T13:58:53.529Z,100236.03
2023-11-11T14:01:20.527Z,100235.44
2023-11-11T14:03:47.089Z,100249.03
2023-11-11T14:06:13.965Z,100240.59
2023-11-11T14:08:41.057Z,100241.31
2023-11-11T14:11:07.904Z,100250.59
2023-11-11T14:13:36.061Z,100255.47
2023-11-11T14:16:03.227Z,100260.72
2023-11-11T14:18:29.821Z,100256.19
2023-11-11T14:21:03.972Z,100258.50
2023-11-11T14:23:30.811Z,100253.47
2023-11-11T14:25:57.555Z,100261.22
2023-11-11T14:28:24.606Z,100262.03
2023-11-11T14:30:51.533Z,100263.56
2023-11-11T14:33:22.041Z,100260.19
2023-11-11T14:35:55.508Z,100265.75
2023-11-11T14:38:22.370Z,100271.63
2023-11-11T14:40:48.949Z,100274.31
2023-11-11T14:43:18.268Z,100274.94
2023-11-11T14:45:45.150Z,100279.69
2023-11-11T14:48:11.742Z,100285.56
2023-11-11T14:50:38.464Z,100285.94
2023-11-11T14:53:05.003Z,100288.09
2023-11-11T14:55:32.726Z,100290.63
2023-11-11T14:57:59.907Z,100290.97
2023-11-11T15:00:28.439Z,100293.66
2023-11-11T15:02:57.687Z,100299.84
2023-11-11T15:05:25.442Z,100300.69
2023-11-11T15:07:54.918Z,100303.25
2023-11-11T15:10:22.432Z,100294.50
2023-11-11T15:12:50.825Z,100307.44
2023-11-11T15:15:18.173Z,100305.38
2023-11-11T15:17:46.752Z,100300.00
2023-11-11T15:20:17.402Z,100319.69
2023-11-11T15:22:53.554Z,100311.91
2023-11-11T15:25:21.025Z,100307.03
2023-11-11T15:27:50.361Z,100309.22
2023-11-11T15:30:20.128Z,100314.25
2023-11-11T15:32:47.976Z,100319.00
2023-11-11T15:35:15.958Z,100321.31
2023-11-11T15:37:42.561Z,100320.44
2023-11-11T15:40:09.704Z,100335.56
2023-11-11T15:42:37.147Z,100321.38
2023-11-11T15:45:06.171Z,100317.59
2023-11-11T15:47:32.712Z,100326.66
2023-11-11T15:49:59.622Z,100325.91
2023-11-11T15:52:28.323Z,100324.22
2023-11-11T15:54:55.076Z,100328.41
2023-11-11T15:57:24.944Z,100328.03
2023-11-11T15:59:51.501Z,100326.88
2023-11-11T16:02:18.191Z,100319.47
2023-11-11T16:04:44.922Z,100329.91
2023-11-11T16:07:11.669Z,100325.69
2023-11-11T16:09:38.158Z,100327.19
2023-11-11T16:12:05.681Z,100331.03
2023-11-11T16:14:32.265Z,100339.28
2023-11-11T16:16:58.973Z,100335.91
2023-11-11T16:19:25.577Z,100338.91
2023-11-11T16:21:52.123Z,100340.75
2023-11-11T16:24:26.878Z,100345.09
2023-11-11T16:26:54.602Z,100353.53
2023-11-11T16:29:21.200Z,100356.91
2023-11-11T16:31:47.694Z,100356.34
2023-11-11T16:34:15.015Z,100368.13
2023-11-11T16:36:41.570Z,100361.91
2023-11-11T16:39:08.067Z,100352.38
2023-11-11T16:41:34.578Z,100361.75
2023-11-11T16:44:05.647Z,100356.91
2023-11-11T16:46:33.730Z,100363.28
2023-11-11T16:49:00.324Z,100369.63
2023-11-11T16:51:26.996Z,100365.09
2023-11-11T16:53:56.665Z,100360.38
2023-11-11T16:56:23.617Z,100356.00
2023-11-11T16:58:50.677Z,100361.00
2023-11-11T17:01:17.794Z,100358.97
2023-11-11T17:03:44.660Z,100364.47
2023-11-11T17:06:11.510Z,100370.34
2023-11-11T17:08:38.853Z,100367.75
2023-11-11T17:11:09.031Z,100373.06
2023-11-11T17:13:40.360Z,100375.03
2023-11-11T17:16:07.822Z,100390.97
2023-11-11T17:18:35.399Z,100384.03
2023-11-11T17:21:02.536Z,100390.19
2023-11-11T17:23:29.295Z,100395.03
2023-11-11T17:25:57.122Z,100398.25
2023-11-11T17:28:23.958Z,100395.78
2023-11-11T17:30:50.403Z,100400.00
2023-11-11T17:33:30.201Z,100403.72
2023-11-11T17:36:03.007Z,100406.41
2023-11-11T17:38:29.569Z,100397.78
2023-11-11T17:40:57.656Z,100407.56
2023-11-11T17:43:24.146Z,100413.63
2023-11-11T17:45:59.752Z,100404.41
2023-11-11T17:48:26.347Z,100410.94
2023-11-11T17:50:53.291Z,100415.00
2023-11-11T17:53:19.789Z,100404.91
2023-11-11T17:55:46.387Z,100410.00
2023-11-11T17:58:13.756Z,100411.16
2023-11-11T18:00:41.067Z,100406.06
2023-11-11T18:03:07.586Z,100413.16
2023-11-11T18:05:35.431Z,100402.41
2023-11-11T18:08:03.347Z,100399.16
2023-11-11T18:10:30.677Z,100397.94
2023-11-11T18:12:57.608Z,100402.19
2023-11-11T18:15:25.813Z,100406.06
2023-11-11T18:17:52.520Z,100413.28
2023-11-11T18:20:19.301Z,100405.94
2023-11-11T18:22:45.947Z,100404.78
2023-11-11T18:25:12.484Z,100402.22
2023-11-11T18:27:39.030Z,100399.53
2023-11-11T18:30:07.082Z,100401.25
2023-11-11T18:32:33.743Z,100403.84
2023-11-11T18:35:01.582Z,100403.47
2023-11-11T18:37:28.224Z,100408.28
2023-11-11T18:39:54.822Z,100404.16
2023-11-11T18:42:21.401Z,100403.47
2023-11-11T18:44:48.016Z,100409.41
2023-11-11T18:47:14.602Z,100402.31
2023-11-11T18:49:41.200Z,100397.94
2023-11-11T18:52:07.708Z,100412.75
2023-11-11T18:54:34.414Z,100403.75
2023-11-11T18:57:00.944Z,100408.53
2023-11-11T18:59:27.415Z,100403.25
2023-11-11T19:01:54.040Z,100407.22
2023-11-11T19:04:20.584Z,100409.31
2023-11-11T19:06:47.055Z,100418.13
2023-11-11T19:09:14.303Z,100407.69
2023-11-11T19:11:45.367Z,100401.47
2023-11-11T19:14:13.246Z,100405.22
2023-11-11T19:16:43.275Z,100409.06
2023-11-11T19:19:12.872Z,100411.13
2023-11-11T19:21:40.431Z,100414.44
2023-11-11T19:24:11.918Z,100411.59
2023-11-11T19:26:40.215Z,100411.06
2023-11-11T19:29:07.455Z,100403.59
2023-11-11T19:31:34.309Z,100403.97
2023-11-11T19:34:02.572Z,100396.69
2023-11-11T19:36:33.467Z,100394.47
2023-11-11T19:39:00.029Z,100402.38
2023-11-11T19:41:26.491Z,100388.72
2023-11-11T19:43:54.006Z,100396.34
2023-11-11T19:46:21.049Z,100391.66
2023-11-11T19:48:47.981Z,100396.84
2023-11-11T19:51:24.597Z,100396.19
2023-11-11T19:53:53.692Z,100396.34
2023-11-11T19:56:21.782Z,100394.81
2023-11-11T19:58:48.946Z,100396.38
2023-11-11T20:01:15.737Z,100396.78
2023-11-11T20:03:42.620Z,100401.84
2023-11-11T20:06:12.099Z,100397.78
2023-11-11T20:08:38.835Z,100393.50
2023-11-11T20:11:05.548Z,100414.81
2023-11-11T20:13:32.023Z,100411.31
2023-11-11T20:15:58.641Z,100408.75
2023-11-11T20:18:25.363Z,100417.56
2023-11-11T20:20:52.299Z,100425.47
2023-11-11T20:23:19.423Z,100411.97
2023-11-11T20:25:46.402Z,100411.66
2023-11-11T20:28:12.996Z,100415.44
2023-11-11T20:30:39.673Z,100397.50
2023-11-11T20:33:12.994Z,100396.09
2023-11-11T20:35:40.035Z,100395.91
2023-11-11T20:38:07.041Z,100395.31
2023-11-11T20:40:34.508Z,100388.13
2023-11-11T20:43:01.098Z,100387.44
2023-11-11T20:45:28.514Z,100385.34
2023-11-11T20:47:59.472Z,100376.00
2023-11-11T20:50:26.087Z,100377.38
2023-11-11T20:52:52.658Z,100385.59
2023-11-11T20:55:20.907Z,100387.81
2023-11-11T20:57:47.472Z,100381.88
2023-11-11T21:00:14.964Z,100374.38
2023-11-11T21:02:42.700Z,100382.19
2023-11-11T21:05:14.879Z,100382.88
2023-11-11T21:07:44.075Z,100381.88
2023-11-11T21:10:11.740Z,100380.91
2023-11-11T21:12:38.233Z,100386.41
2023-11-11T21:15:05.270Z,100381.41
2023-11-11T21:17:32.226Z,100373.22
2023-11-11T21:20:02.342Z,100379.03
2023-11-11T21:22:29.479Z,100375.19
2023-11-11T21:24:55.962Z,100375.06
2023-11-11T21:27:22.622Z,100379.28
2023-11-11T21:29:49.239Z,100385.03
2023-11-11T21:32:15.924Z,100373.75
2023-11-11T21:34:42.940Z,100381.69
2023-11-11T21:37:10.045Z,100380.97
2023-11-11T21:39:36.720Z,100384.88
2023-11-11T21:42:03.746Z,100380.53
2023-11-11T21:44:31.433Z,100388.13
2023-11-11T21:46:57.912Z,100377.38
2023-11-11T21:49:25.543Z,100386.31
2023-11-11T21:51:52.226Z,100382.19
2023-11-11T21:54:18.900Z,100380.66
2023-11-11T21:56:45.508Z,100384.19
2023-11-11T21:59:13.009Z,100379.50
2023-11-11T22:01:43.829Z,100367.94
2023-11-11T22:04:10.727Z,100376.69
2023-11-11T22:06:38.008Z,100374.09
2023-11-11T22:09:06.786Z,100372.00
2023-11-11T22:11:34.296Z,100365.25
2023-11-11T22:14:00.779Z,100364.09
2023-11-11T22:16:27.334Z,100365.31
2023-11-11T22:18:54.518Z,100359.72
2023-11-11T22:21:21.070Z,100359.72
2023-11-11T22:23:47.515Z,100358.72
2023-11-11T22:26:18.342Z,100362.09
2023-11-11T22:28:46.406Z,100360.94
2023-11-11T22:31:13.365Z,100367.69
2023-11-11T22:33:39.898Z,100366.31
2023-11-11T22:36:08.752Z,100368.84
2023-11-11T22:38:35.256Z,100365.31
2023-11-11T22:41:01.890Z,100361.25
2023-11-11T22:43:28.341Z,100362.97
2023-11-11T22:45:54.883Z,100366.78
2023-11-11T22:48:21.441Z,100372.28
2023-11-11T22:50:47.931Z,100375.53
2023-11-11T22:53:14.713Z,100369.31
2023-11-11T22:55:41.412Z,100376.22
2023-11-11T22:58:08.784Z,100375.38
2023-11-11T23:00:35.321Z,100369.47
2023-11-11T23:03:02.475Z,100380.44
2023-11-11T23:05:29.354Z,100373.44
2023-11-11T23:07:56.470Z,100377.06
2023-11-11T23:10:23.225Z,100374.09
2023-11-11T23:12:49.737Z,100375.91
2023-11-11T23:15:17.996Z,100373.53
2023-11-11T23:17:44.966Z,100369.88
2023-11-11T23:20:12.882Z,100362.78
2023-11-11T23:22:39.888Z,100361.63
2023-11-11T23:25:06.526Z,100362.31
2023-11-11T23:27:32.963Z,100351.88
2023-11-11T23:29:59.642Z,100350.88
2023-11-11T23:32:28.348Z,100353.03
2023-11-11T23:34:55.414Z,100349.53
2023-11-11T23:37:21.949Z,100343.00
2023-11-11T23:39:48.467Z,100341.28
2023-11-11T23:42:17.026Z,100336.91
2023-11-11T23:44:43.483Z,100340.06
2023-11-11T23:47:10.055Z,100342.63
2023-11-11T23:49:36.681Z,100329.88
2023-11-11T23:52:03.103Z,100333.06
2023-11-11T23:54:29.632Z,100327.31
2023-11-11T23:56:56.063Z,100334.94
2023-11-11T23:59:22.623Z,100330.25
